createdAt,value
2018-10-05T00:01:48.569Z,11.67
2018-10-05T00:04:21.577Z,15.20
2018-10-05T00:06:54.579Z,8.77
2018-10-05T00:09:27.253Z,11.17
2018-10-05T00:12:00.118Z,11.60
2018-10-05T00:14:32.840Z,11.90
2018-10-05T00:17:05.941Z,12.83
2018-10-05T00:19:38.931Z,12.40
2018-10-05T00:22:11.909Z,14.23
2018-10-05T00:24:44.951Z,12.40
2018-10-05T00:27:17.679Z,9.13
2018-10-05T00:29:50.508Z,14.20
2018-10-05T00:32:23.325Z,9.27
2018-10-05T00:34:56.311Z,10.90
2018-10-05T00:37:29.289Z,10.33
2018-10-05T00:40:02.074Z,9.37
2018-10-05T00:42:35.285Z,26.63
2018-10-05T00:45:08.132Z,13.83
2018-10-05T00:47:40.980Z,7.17
2018-10-05T00:50:13.626Z,8.70
2018-10-05T00:52:46.643Z,9.17
2018-10-05T00:55:19.303Z,12.50
2018-10-05T00:57:52.341Z,14.93
2018-10-05T01:00:25.683Z,10.43
2018-10-05T01:02:58.622Z,9.93
2018-10-05T01:05:31.483Z,9.20
2018-10-05T01:08:04.563Z,7.27
2018-10-05T01:10:37.346Z,14.53
2018-10-05T01:13:10.327Z,11.37
2018-10-05T01:15:42.899Z,14.40
2018-10-05T01:18:15.810Z,13.60
2018-10-05T01:20:48.989Z,12.07
2018-10-05T01:23:22.168Z,11.90
2018-10-05T01:25:55.089Z,15.97
2018-10-05T01:28:27.871Z,10.60
2018-10-05T01:31:00.888Z,12.47
2018-10-05T01:33:34.569Z,11.40
2018-10-05T01:36:07.372Z,7.37
2018-10-05T01:38:40.587Z,9.53
2018-10-05T01:41:13.265Z,9.90
2018-10-05T01:43:46.224Z,11.07
2018-10-05T01:46:19.168Z,10.77
2018-10-05T01:48:52.092Z,10.00
2018-10-05T01:51:37.276Z,11.97
2018-10-05T01:54:10.468Z,12.00
2018-10-05T01:56:43.199Z,9.33
2018-10-05T01:59:17.103Z,11.40
2018-10-05T02:01:49.947Z,14.83
2018-10-05T02:04:23.039Z,10.20
2018-10-05T02:06:55.909Z,17.73
2018-10-05T02:09:28.562Z,13.43
2018-10-05T02:12:01.202Z,8.83
2018-10-05T02:14:34.104Z,9.33
2018-10-05T02:17:06.887Z,14.10
2018-10-05T02:19:39.671Z,9.87
2018-10-05T02:22:12.568Z,12.10
2018-10-05T02:24:45.745Z,11.73
2018-10-05T02:27:19.524Z,11.00
2018-10-05T02:29:52.444Z,7.23
2018-10-05T02:32:25.161Z,8.53
2018-10-05T02:34:58.250Z,10.57
2018-10-05T02:37:30.832Z,11.73
2018-10-05T02:40:03.619Z,9.33
2018-10-05T02:42:36.343Z,7.23
2018-10-05T02:45:09.394Z,8.67
2018-10-05T02:47:42.353Z,7.47
2018-10-05T02:50:15.183Z,8.13
2018-10-05T02:52:47.926Z,11.27
2018-10-05T02:55:20.956Z,6.73
2018-10-05T02:57:53.929Z,10.57
2018-10-05T03:00:35.989Z,5.13
2018-10-05T03:03:08.587Z,6.57
2018-10-05T03:05:41.717Z,7.60
2018-10-05T03:08:14.750Z,9.43
2018-10-05T03:10:47.891Z,8.80
2018-10-05T03:13:20.788Z,8.17
2018-10-05T03:15:53.897Z,9.63
2018-10-05T03:18:26.508Z,5.70
2018-10-05T03:20:59.953Z,6.73
2018-10-05T03:23:32.765Z,5.17
2018-10-05T03:26:05.847Z,8.40
2018-10-05T03:28:38.501Z,9.17
2018-10-05T03:31:11.189Z,7.27
2018-10-05T03:33:44.074Z,7.03
2018-10-05T03:36:17.240Z,9.23
2018-10-05T03:38:50.095Z,6.30
2018-10-05T03:41:22.956Z,10.23
2018-10-05T03:43:55.856Z,6.83
2018-10-05T03:46:28.872Z,5.53
2018-10-05T03:49:01.835Z,7.43
2018-10-05T03:51:34.923Z,7.00
2018-10-05T03:54:07.849Z,9.70
2018-10-05T03:56:41.151Z,8.97
2018-10-05T03:59:14.271Z,12.37
2018-10-05T04:01:47.337Z,12.70
2018-10-05T04:04:20.052Z,8.57
2018-10-05T04:06:53.176Z,9.80
2018-10-05T04:09:26.020Z,8.43
2018-10-05T04:11:58.906Z,6.60
2018-10-05T04:14:31.714Z,7.60
2018-10-05T04:17:04.435Z,8.77
2018-10-05T04:19:37.058Z,8.93
2018-10-05T04:22:09.831Z,6.23
2018-10-05T04:24:42.441Z,7.20
2018-10-05T04:27:15.460Z,4.40
2018-10-05T04:29:48.528Z,8.23
2018-10-05T04:32:21.458Z,8.97
2018-10-05T04:34:54.147Z,10.10
2018-10-05T04:37:27.377Z,8.37
2018-10-05T04:40:00.262Z,8.83
2018-10-05T04:42:33.045Z,10.67
2018-10-05T04:45:06.092Z,6.53
2018-10-05T04:47:39.300Z,8.77
2018-10-05T04:50:12.236Z,9.90
2018-10-05T04:52:45.176Z,9.70
2018-10-05T04:55:17.929Z,7.83
2018-10-05T04:57:50.852Z,8.80
2018-10-05T05:00:23.878Z,10.03
2018-10-05T05:02:56.153Z,10.33
2018-10-05T05:05:28.367Z,7.73
2018-10-05T05:08:00.897Z,8.30
2018-10-05T05:10:33.093Z,7.07
2018-10-05T05:13:05.511Z,7.23
2018-10-05T05:15:37.566Z,6.13
2018-10-05T05:18:10.029Z,6.50
2018-10-05T05:20:43.120Z,7.50
2018-10-05T05:23:15.760Z,7.97
2018-10-05T05:25:48.082Z,7.53
2018-10-05T05:28:20.367Z,6.63
2018-10-05T05:30:52.393Z,6.37
2018-10-05T05:33:24.550Z,7.30
2018-10-05T05:35:56.544Z,7.57
2018-10-05T05:38:28.724Z,4.97
2018-10-05T05:41:00.971Z,4.93
2018-10-05T05:43:33.089Z,5.97
2018-10-05T05:46:05.163Z,8.10
2018-10-05T05:48:37.511Z,7.67
2018-10-05T05:51:09.890Z,8.97
2018-10-05T05:53:42.524Z,6.17
2018-10-05T05:56:14.884Z,10.00
2018-10-05T05:58:47.200Z,5.40
2018-10-05T06:01:19.317Z,8.83
2018-10-05T06:03:51.767Z,6.80
2018-10-05T06:06:23.736Z,8.30
2018-10-05T06:08:56.181Z,4.63
2018-10-05T06:11:28.512Z,8.17
2018-10-05T06:14:00.619Z,8.60
2018-10-05T06:16:32.692Z,6.77
2018-10-05T06:19:05.428Z,5.37
2018-10-05T06:21:38.053Z,7.50
2018-10-05T06:24:10.424Z,6.37
2018-10-05T06:26:42.444Z,8.33
2018-10-05T06:29:14.800Z,5.37
2018-10-05T06:31:47.185Z,6.70
2018-10-05T06:34:19.451Z,7.27
2018-10-05T06:36:51.617Z,8.47
2018-10-05T06:39:23.701Z,7.93
2018-10-05T06:41:55.784Z,9.60
2018-10-05T06:44:28.153Z,7.57
2018-10-05T06:47:00.307Z,9.33
2018-10-05T06:49:33.753Z,5.80
2018-10-05T06:52:06.627Z,5.17
2018-10-05T06:54:39.710Z,7.17
2018-10-05T06:57:11.832Z,6.77
2018-10-05T06:59:43.883Z,4.50
2018-10-05T07:02:16.439Z,4.60
2018-10-05T07:04:49.612Z,5.87
2018-10-05T07:07:22.530Z,6.63
2018-10-05T07:09:55.588Z,4.33
2018-10-05T07:12:28.361Z,4.73
2018-10-05T07:15:01.410Z,5.13
2018-10-05T07:17:34.468Z,8.87
2018-10-05T07:20:07.443Z,5.27
2018-10-05T07:22:40.300Z,7.00
2018-10-05T07:25:13.340Z,4.77
2018-10-05T07:27:46.169Z,5.33
2018-10-05T07:30:19.326Z,4.70
2018-10-05T07:32:52.164Z,6.17
2018-10-05T07:35:24.855Z,5.93
2018-10-05T07:37:57.633Z,6.83
2018-10-05T07:40:30.635Z,6.40
2018-10-05T07:43:03.482Z,6.23
2018-10-05T07:45:36.742Z,6.37
2018-10-05T07:48:09.399Z,6.70
2018-10-05T07:50:42.556Z,6.03
2018-10-05T07:53:15.342Z,4.37
2018-10-05T07:55:48.193Z,4.23
2018-10-05T07:58:21.292Z,4.00
2018-10-05T08:00:54.485Z,5.10
2018-10-05T08:03:27.463Z,4.47
2018-10-05T08:06:00.487Z,4.17
2018-10-05T08:08:33.546Z,6.20
2018-10-05T08:11:06.448Z,6.97
2018-10-05T08:13:39.572Z,4.93
2018-10-05T08:16:12.316Z,5.60
2018-10-05T08:18:45.272Z,4.40
2018-10-05T08:21:18.436Z,7.03
2018-10-05T08:23:51.397Z,7.23
2018-10-05T08:26:24.531Z,5.03
2018-10-05T08:28:57.124Z,4.97
2018-10-05T08:31:30.338Z,6.07
2018-10-05T08:34:02.695Z,3.60
2018-10-05T08:36:35.840Z,3.83
2018-10-05T08:39:10.159Z,4.07
2018-10-05T08:41:43.271Z,4.50
2018-10-05T08:44:16.282Z,3.17
2018-10-05T08:46:49.175Z,3.80
2018-10-05T08:49:21.803Z,9.03
2018-10-05T08:51:54.914Z,4.83
2018-10-05T08:54:27.874Z,5.97
2018-10-05T08:57:00.663Z,7.37
2018-10-05T08:59:33.432Z,8.77
2018-10-05T09:02:06.428Z,8.03
2018-10-05T09:04:39.231Z,5.93
2018-10-05T09:07:12.137Z,10.30
2018-10-05T09:09:44.748Z,7.87
2018-10-05T09:12:17.895Z,6.23
2018-10-05T09:14:50.976Z,11.83
2018-10-05T09:17:24.092Z,9.10
2018-10-05T09:19:56.852Z,9.60
2018-10-05T09:22:29.708Z,7.70
2018-10-05T09:25:02.510Z,6.77
2018-10-05T09:27:35.539Z,6.23
2018-10-05T09:30:08.292Z,7.53
2018-10-05T09:32:41.329Z,5.10
2018-10-05T09:35:14.112Z,9.40
2018-10-05T09:37:46.888Z,6.83
2018-10-05T09:40:19.951Z,9.30
2018-10-05T09:42:53.035Z,9.83
2018-10-05T09:45:25.757Z,5.63
2018-10-05T09:47:58.729Z,6.80
2018-10-05T09:50:31.658Z,6.80
2018-10-05T09:53:04.739Z,8.80
2018-10-05T09:55:37.728Z,6.57
2018-10-05T09:58:11.000Z,8.60
2018-10-05T10:00:48.050Z,12.73
2018-10-05T10:03:25.281Z,7.63
2018-10-05T10:05:58.097Z,10.23
2018-10-05T10:08:31.204Z,10.93
2018-10-05T10:11:03.928Z,9.07
2018-10-05T10:13:37.499Z,6.97
2018-10-05T10:16:10.555Z,9.67
2018-10-05T10:18:43.417Z,9.07
2018-10-05T10:21:16.111Z,8.27
2018-10-05T10:23:48.843Z,5.63
2018-10-05T10:26:21.620Z,8.57
2018-10-05T10:28:54.654Z,10.17
2018-10-05T10:31:27.587Z,9.57
2018-10-05T10:34:00.527Z,9.93
2018-10-05T10:36:33.378Z,9.00
2018-10-05T10:39:06.837Z,12.27
2018-10-05T10:41:39.526Z,16.97
2018-10-05T10:44:12.332Z,13.77
2018-10-05T10:46:45.249Z,12.40
2018-10-05T10:49:18.307Z,11.60
2018-10-05T10:51:51.039Z,10.57
2018-10-05T10:54:24.057Z,11.73
2018-10-05T10:56:56.979Z,8.40
2018-10-05T10:59:29.964Z,12.13
2018-10-05T11:02:02.847Z,8.50
2018-10-05T11:04:35.942Z,11.07
2018-10-05T11:07:09.483Z,11.67
2018-10-05T11:09:42.680Z,10.37
2018-10-05T11:12:15.465Z,8.93
2018-10-05T11:14:48.323Z,12.90
2018-10-05T11:17:21.221Z,18.10
2018-10-05T11:19:53.925Z,16.83
2018-10-05T11:22:26.700Z,16.43
2018-10-05T11:24:59.759Z,17.03
2018-10-05T11:27:33.747Z,14.50
2018-10-05T11:30:06.691Z,38.50
2018-10-05T11:32:39.415Z,30.83
2018-10-05T11:35:12.703Z,33.53
2018-10-05T11:37:45.557Z,18.27
2018-10-05T11:40:18.428Z,30.23
2018-10-05T11:42:51.208Z,21.07
2018-10-05T11:45:24.132Z,17.73
2018-10-05T11:47:56.729Z,18.33
2018-10-05T11:50:29.639Z,21.87
2018-10-05T11:53:02.408Z,16.03
2018-10-05T11:55:35.407Z,12.63
2018-10-05T11:58:08.079Z,14.13
2018-10-05T12:00:40.890Z,23.30
2018-10-05T12:03:13.853Z,15.30
2018-10-05T12:05:46.960Z,12.30
2018-10-05T12:08:19.824Z,17.90
2018-10-05T12:10:52.932Z,16.10
2018-10-05T12:13:25.772Z,11.70
2018-10-05T12:15:58.855Z,18.57
2018-10-05T12:18:31.801Z,41.77
2018-10-05T12:21:04.673Z,15.87
2018-10-05T12:23:37.411Z,15.60
2018-10-05T12:26:10.429Z,12.60
2018-10-05T12:28:43.369Z,13.03
2018-10-05T12:31:16.130Z,26.70
2018-10-05T12:33:50.009Z,16.30
2018-10-05T12:36:23.317Z,25.43
2018-10-05T12:38:55.737Z,13.17
2018-10-05T12:41:28.885Z,15.63
2018-10-05T12:44:01.744Z,11.53
2018-10-05T12:46:34.855Z,13.97
2018-10-05T12:49:07.890Z,14.83
2018-10-05T12:51:40.751Z,10.37
2018-10-05T12:54:13.495Z,14.20
2018-10-05T12:56:48.284Z,18.53
2018-10-05T12:59:21.017Z,13.73
2018-10-05T13:01:54.108Z,17.30
2018-10-05T13:04:26.929Z,16.90
2018-10-05T13:07:00.020Z,18.90
2018-10-05T13:09:32.863Z,21.20
2018-10-05T13:12:05.847Z,15.53
2018-10-05T13:14:43.991Z,16.87
2018-10-05T13:17:16.931Z,18.90
2018-10-05T13:19:49.748Z,15.53
2018-10-05T13:22:22.456Z,15.20
2018-10-05T13:24:55.334Z,14.03
2018-10-05T13:27:28.200Z,16.33
2018-10-05T13:30:02.457Z,12.67
2018-10-05T13:32:35.178Z,17.60
2018-10-05T13:35:07.813Z,13.70
2018-10-05T13:37:41.025Z,15.13
2018-10-05T13:40:13.734Z,19.87
2018-10-05T13:42:46.544Z,14.67
2018-10-05T13:45:19.459Z,14.23
2018-10-05T13:47:52.331Z,14.47
2018-10-05T13:50:25.120Z,13.67
2018-10-05T13:52:58.017Z,13.20
2018-10-05T13:55:31.071Z,17.23
2018-10-05T13:58:04.215Z,13.87
2018-10-05T14:00:36.956Z,15.83
2018-10-05T14:03:10.195Z,10.90
2018-10-05T14:05:43.123Z,14.40
2018-10-05T14:08:17.172Z,16.57
2018-10-05T14:10:50.794Z,9.97
2018-10-05T14:13:23.837Z,13.67
2018-10-05T14:15:56.964Z,18.97
2018-10-05T14:18:30.083Z,8.43
2018-10-05T14:21:02.983Z,12.83
2018-10-05T14:23:36.865Z,14.77
2018-10-05T14:26:09.704Z,7.97
2018-10-05T14:28:42.742Z,13.80
2018-10-05T14:31:15.805Z,11.43
2018-10-05T14:33:48.679Z,11.07
2018-10-05T14:36:21.569Z,19.67
2018-10-05T14:38:55.153Z,19.20
2018-10-05T14:41:28.020Z,14.13
2018-10-05T14:44:01.748Z,20.63
2018-10-05T14:46:34.467Z,6.00
2018-10-05T14:49:07.889Z,9.93
2018-10-05T14:51:40.804Z,9.27
2018-10-05T14:54:13.651Z,11.00
2018-10-05T14:56:46.675Z,7.33
2018-10-05T14:59:20.040Z,9.27
2018-10-05T15:01:53.736Z,7.67
2018-10-05T15:04:26.897Z,7.87
2018-10-05T15:07:00.964Z,5.97
2018-10-05T15:09:34.069Z,8.90
2018-10-05T15:12:06.761Z,6.00
2018-10-05T15:14:40.240Z,10.03
2018-10-05T15:17:13.182Z,5.80
2018-10-05T15:19:46.478Z,9.37
2018-10-05T15:22:19.446Z,4.37
2018-10-05T15:24:52.705Z,5.77
2018-10-05T15:27:25.581Z,10.30
2018-10-05T15:29:58.455Z,9.13
2018-10-05T15:32:31.440Z,5.03
2018-10-05T15:35:05.041Z,3.97
2018-10-05T15:37:39.570Z,8.23
2018-10-05T15:40:13.764Z,6.13
2018-10-05T15:42:46.544Z,4.80
2018-10-05T15:45:19.437Z,5.90
2018-10-05T15:47:52.477Z,7.95
2018-10-05T15:50:25.688Z,5.97
2018-10-05T15:52:58.485Z,5.97
2018-10-05T15:55:33.587Z,3.95
2018-10-05T15:58:06.435Z,4.22
2018-10-05T16:00:40.095Z,11.60
2018-10-05T16:03:13.473Z,7.22
2018-10-05T16:05:47.676Z,10.28
2018-10-05T16:08:20.677Z,10.05
2018-10-05T16:10:53.958Z,7.20
2018-10-05T16:13:27.950Z,7.60
2018-10-05T16:16:01.183Z,9.40
2018-10-05T16:18:33.840Z,5.80
2018-10-05T16:21:09.966Z,12.40
2018-10-05T16:23:44.976Z,8.55
2018-10-05T16:26:19.060Z,9.10
2018-10-05T16:28:52.177Z,6.67
2018-10-05T16:31:25.432Z,6.78
2018-10-05T16:33:58.388Z,4.65
2018-10-05T16:36:31.196Z,5.62
2018-10-05T16:39:04.853Z,13.93
2018-10-05T16:41:38.059Z,7.37
2018-10-05T16:44:10.737Z,5.47
2018-10-05T16:46:45.673Z,4.55
2018-10-05T16:49:18.866Z,6.80
2018-10-05T16:51:53.557Z,6.17
2018-10-05T16:54:27.891Z,5.28
2018-10-05T16:57:00.903Z,5.62
2018-10-05T16:59:35.192Z,6.22
2018-10-05T17:02:09.422Z,4.87
2018-10-05T17:04:42.249Z,12.55
2018-10-05T17:07:18.388Z,5.40
2018-10-05T17:09:51.004Z,8.00
2018-10-05T17:12:24.532Z,4.10
2018-10-05T17:14:58.833Z,7.72
2018-10-05T17:17:32.473Z,8.48
2018-10-05T17:20:05.710Z,11.15
2018-10-05T17:22:39.011Z,7.50
2018-10-05T17:25:15.036Z,8.40
2018-10-05T17:27:50.083Z,8.73
2018-10-05T17:30:23.085Z,10.18
2018-10-05T17:32:56.643Z,12.10
2018-10-05T17:35:31.188Z,7.03
2018-10-05T17:38:04.758Z,5.75
2018-10-05T17:40:38.204Z,9.28
2018-10-05T17:43:11.348Z,9.28
2018-10-05T17:45:44.868Z,9.08
2018-10-05T17:48:19.284Z,7.42
2018-10-05T17:50:51.955Z,9.70
2018-10-05T17:53:24.814Z,8.43
2018-10-05T17:55:57.963Z,6.33
2018-10-05T17:58:31.008Z,8.75
2018-10-05T18:01:04.120Z,10.98
2018-10-05T18:03:37.957Z,9.75
2018-10-05T18:06:10.966Z,7.83
2018-10-05T18:08:44.389Z,9.78
2018-10-05T18:11:17.263Z,5.62
2018-10-05T18:13:50.182Z,7.90
2018-10-05T18:16:23.017Z,8.65
2018-10-05T18:19:00.398Z,9.15
2018-10-05T18:21:33.161Z,5.12
2018-10-05T18:24:06.347Z,4.25
2018-10-05T18:26:39.220Z,8.70
2018-10-05T18:29:14.044Z,6.65
2018-10-05T18:31:46.885Z,9.93
2018-10-05T18:34:19.880Z,10.03
2018-10-05T18:36:52.885Z,9.05
2018-10-05T18:39:25.966Z,9.50
2018-10-05T18:41:58.912Z,8.35
2018-10-05T18:44:32.145Z,6.62
2018-10-05T18:47:05.188Z,7.83
2018-10-05T18:49:38.159Z,3.37
2018-10-05T18:52:11.150Z,9.40
2018-10-05T18:54:44.481Z,8.03
2018-10-05T18:57:23.627Z,7.42
2018-10-05T18:59:56.592Z,6.80
2018-10-05T19:02:29.492Z,15.50
2018-10-05T19:05:02.455Z,8.65
2018-10-05T19:07:35.333Z,6.08
2018-10-05T19:10:08.461Z,5.40
2018-10-05T19:12:41.343Z,5.65
2018-10-05T19:15:14.190Z,6.40
2018-10-05T19:17:46.972Z,9.08
2018-10-05T19:20:19.865Z,8.55
2018-10-05T19:22:52.907Z,14.15
2018-10-05T19:25:25.864Z,4.37
2018-10-05T19:27:58.735Z,9.83
2018-10-05T19:30:31.886Z,9.33
2018-10-05T19:33:05.625Z,5.95
2018-10-05T19:35:38.550Z,5.40
2018-10-05T19:38:11.459Z,5.60
2018-10-05T19:40:44.514Z,11.28
2018-10-05T19:43:17.656Z,4.78
2018-10-05T19:45:50.952Z,7.45
2018-10-05T19:48:24.064Z,12.63
2018-10-05T19:50:57.011Z,7.08
2018-10-05T19:53:29.808Z,7.97
2018-10-05T19:56:02.842Z,7.92
2018-10-05T19:58:35.835Z,13.30
2018-10-05T20:01:10.169Z,12.25
2018-10-05T20:03:43.573Z,9.35
2018-10-05T20:06:16.707Z,10.58
2018-10-05T20:08:54.397Z,11.57
2018-10-05T20:11:27.423Z,7.83
2018-10-05T20:14:01.812Z,7.65
2018-10-05T20:16:34.680Z,9.70
2018-10-05T20:19:07.629Z,9.20
2018-10-05T20:21:40.423Z,6.60
2018-10-05T20:24:13.994Z,11.75
2018-10-05T20:26:47.028Z,4.92
2018-10-05T20:29:21.243Z,7.37
2018-10-05T20:31:54.335Z,7.80
2018-10-05T20:34:27.583Z,4.03
2018-10-05T20:37:01.421Z,3.85
2018-10-05T20:39:34.576Z,6.87
2018-10-05T20:42:07.421Z,6.10
2018-10-05T20:44:41.237Z,8.35
2018-10-05T20:47:14.713Z,5.12
2018-10-05T20:49:47.514Z,7.70
2018-10-05T20:52:20.690Z,3.98
2018-10-05T20:54:53.612Z,8.60
2018-10-05T20:57:26.656Z,7.30
2018-10-05T20:59:59.526Z,6.40
2018-10-05T21:02:33.295Z,7.08
2018-10-05T21:05:06.878Z,8.08
2018-10-05T21:07:40.264Z,5.17
2018-10-05T21:10:13.285Z,10.50
2018-10-05T21:12:46.124Z,8.65
2018-10-05T21:15:18.695Z,4.35
2018-10-05T21:17:52.442Z,8.55
2018-10-05T21:20:25.930Z,6.62
2018-10-05T21:22:59.454Z,4.53
2018-10-05T21:25:33.325Z,15.15
2018-10-05T21:28:06.551Z,7.20
2018-10-05T21:30:39.121Z,7.12
2018-10-05T21:33:12.184Z,7.03
2018-10-05T21:35:45.612Z,6.03
2018-10-05T21:38:18.391Z,5.90
2018-10-05T21:40:51.213Z,8.18
2018-10-05T21:43:24.513Z,5.53
2018-10-05T21:45:57.291Z,4.43
2018-10-05T21:48:30.755Z,11.30
2018-10-05T21:51:06.960Z,18.07
2018-10-05T21:53:39.989Z,4.87
2018-10-05T21:56:13.124Z,10.33
2018-10-05T21:58:47.466Z,11.30
2018-10-05T22:01:20.828Z,10.93
2018-10-05T22:03:53.988Z,11.47
2018-10-05T22:06:26.917Z,12.98
2018-10-05T22:09:01.218Z,9.08
2018-10-05T22:11:34.177Z,12.23
2018-10-05T22:14:07.371Z,9.63
2018-10-05T22:16:40.236Z,8.33
2018-10-05T22:19:13.367Z,11.43
2018-10-05T22:21:46.384Z,5.17
2018-10-05T22:24:19.436Z,5.30
2018-10-05T22:26:52.458Z,4.10
2018-10-05T22:29:25.608Z,10.93
2018-10-05T22:31:58.669Z,6.10
2018-10-05T22:34:31.869Z,11.70
2018-10-05T22:37:04.889Z,5.90
2018-10-05T22:39:38.016Z,9.93
2018-10-05T22:42:11.644Z,7.73
2018-10-05T22:44:44.560Z,7.63
2018-10-05T22:47:18.237Z,7.80
2018-10-05T22:49:51.693Z,6.70
2018-10-05T22:52:24.563Z,6.23
2018-10-05T22:54:57.567Z,9.13
2018-10-05T22:57:30.813Z,11.63
2018-10-05T23:00:03.742Z,14.23
2018-10-05T23:02:36.480Z,13.47
2018-10-05T23:05:09.622Z,11.90
2018-10-05T23:07:42.552Z,15.47
2018-10-05T23:10:15.538Z,13.63
2018-10-05T23:12:48.528Z,12.70
2018-10-05T23:15:22.264Z,18.93
2018-10-05T23:17:55.161Z,22.23
2018-10-05T23:20:28.667Z,14.60
2018-10-05T23:23:01.268Z,10.63
2018-10-05T23:25:33.897Z,11.63
2018-10-05T23:28:06.890Z,14.27
2018-10-05T23:30:39.775Z,9.17
2018-10-05T23:33:13.097Z,14.17
2018-10-05T23:35:46.262Z,12.77
2018-10-05T23:38:19.145Z,13.47
2018-10-05T23:40:52.404Z,15.30
2018-10-05T23:43:25.042Z,13.53
2018-10-05T23:45:57.844Z,12.87
2018-10-05T23:48:30.948Z,12.50
2018-10-05T23:51:03.800Z,12.90
2018-10-05T23:53:36.877Z,13.33
2018-10-05T23:56:09.796Z,13.67
2018-10-05T23:58:42.875Z,9.40
